createdAt,value
2017-08-03T00:02:06.735Z,13.50
2017-08-03T00:04:34.276Z,15.00
2017-08-03T00:07:02.637Z,14.50
2017-08-03T00:09:30.187Z,16.87
2017-08-03T00:11:57.741Z,14.93
2017-08-03T00:14:25.314Z,15.13
2017-08-03T00:16:52.853Z,15.27
2017-08-03T00:19:20.399Z,14.10
2017-08-03T00:21:47.985Z,15.93
2017-08-03T00:24:15.525Z,15.50
2017-08-03T00:26:43.896Z,16.20
2017-08-03T00:29:12.225Z,15.80
2017-08-03T00:31:39.777Z,16.80
2017-08-03T00:34:07.320Z,15.80
2017-08-03T00:36:34.881Z,15.43
2017-08-03T00:39:02.403Z,15.70
2017-08-03T00:41:29.934Z,15.80
2017-08-03T00:43:57.523Z,15.73
2017-08-03T00:46:25.105Z,16.93
2017-08-03T00:48:52.644Z,15.90
2017-08-03T00:51:20.222Z,15.40
2017-08-03T00:53:47.769Z,14.80
2017-08-03T00:56:15.320Z,15.80
2017-08-03T00:58:42.886Z,14.73
2017-08-03T01:01:10.719Z,15.57
2017-08-03T01:03:39.014Z,13.53
2017-08-03T01:06:07.326Z,15.30
2017-08-03T01:08:34.875Z,13.03
2017-08-03T01:11:02.408Z,13.57
2017-08-03T01:13:29.993Z,14.20
2017-08-03T01:15:57.516Z,12.63
2017-08-03T01:18:25.053Z,11.57
2017-08-03T01:20:52.624Z,11.93
2017-08-03T01:23:20.142Z,11.23
2017-08-03T01:25:48.440Z,12.60
2017-08-03T01:28:17.006Z,10.40
2017-08-03T01:30:44.570Z,11.57
2017-08-03T01:33:12.875Z,11.60
2017-08-03T01:35:40.447Z,11.00
2017-08-03T01:38:07.990Z,10.50
2017-08-03T01:40:36.332Z,11.67
2017-08-03T01:43:03.894Z,11.00
2017-08-03T01:45:31.408Z,12.50
2017-08-03T01:47:58.943Z,11.70
2017-08-03T01:50:26.503Z,12.30
2017-08-03T01:52:54.038Z,11.57
2017-08-03T01:55:21.622Z,12.20
2017-08-03T01:57:49.195Z,12.10
2017-08-03T02:00:16.771Z,11.80
2017-08-03T02:02:44.312Z,11.33
2017-08-03T02:05:11.869Z,11.30
2017-08-03T02:07:39.463Z,11.87
2017-08-03T02:10:07.006Z,10.97
2017-08-03T02:12:34.586Z,11.70
2017-08-03T02:15:02.141Z,12.33
2017-08-03T02:17:29.703Z,12.17
2017-08-03T02:19:57.262Z,12.43
2017-08-03T02:22:24.816Z,12.40
2017-08-03T02:24:52.365Z,12.47
2017-08-03T02:27:19.976Z,12.10
2017-08-03T02:29:48.323Z,11.90
2017-08-03T02:32:15.881Z,11.60
2017-08-03T02:34:43.431Z,11.10
2017-08-03T02:37:10.965Z,11.57
2017-08-03T02:39:38.509Z,10.53
2017-08-03T02:42:06.057Z,10.53
2017-08-03T02:44:33.594Z,10.87
2017-08-03T02:47:01.110Z,10.40
2017-08-03T02:49:28.662Z,9.83
2017-08-03T02:51:56.225Z,10.87
2017-08-03T02:54:24.330Z,9.53
2017-08-03T02:56:52.628Z,9.70
2017-08-03T02:59:20.164Z,9.20
2017-08-03T03:01:47.731Z,9.13
2017-08-03T03:04:15.304Z,9.47
2017-08-03T03:06:43.594Z,8.50
2017-08-03T03:09:11.882Z,10.40
2017-08-03T03:11:39.446Z,8.80
2017-08-03T03:14:06.991Z,8.93
2017-08-03T03:16:35.323Z,9.13
2017-08-03T03:19:02.895Z,9.57
2017-08-03T03:21:30.435Z,9.53
2017-08-03T03:23:57.960Z,8.63
2017-08-03T03:26:26.270Z,8.60
2017-08-03T03:28:53.800Z,9.73
2017-08-03T03:31:21.351Z,9.50
2017-08-03T03:33:48.900Z,9.17
2017-08-03T03:36:16.432Z,8.00
2017-08-03T03:38:43.987Z,8.47
2017-08-03T03:41:11.516Z,7.90
2017-08-03T03:43:39.030Z,7.67
2017-08-03T03:46:06.578Z,7.33
2017-08-03T03:48:34.116Z,8.77
2017-08-03T03:51:01.683Z,8.50
2017-08-03T03:53:29.990Z,8.00
2017-08-03T03:55:57.532Z,9.13
2017-08-03T03:58:25.855Z,8.83
2017-08-03T04:00:53.391Z,8.10
2017-08-03T04:03:20.926Z,8.70
2017-08-03T04:05:48.509Z,8.40
2017-08-03T04:08:16.818Z,7.90
2017-08-03T04:10:44.354Z,8.23
2017-08-03T04:13:12.675Z,9.10
2017-08-03T04:15:40.192Z,7.93
2017-08-03T04:18:08.534Z,8.10
2017-08-03T04:20:36.098Z,8.70
2017-08-03T04:23:03.631Z,8.57
2017-08-03T04:25:31.200Z,9.20
2017-08-03T04:27:58.746Z,8.10
2017-08-03T04:30:27.028Z,8.27
2017-08-03T04:32:55.315Z,8.97
2017-08-03T04:35:22.883Z,9.27
2017-08-03T04:37:50.427Z,8.80
2017-08-03T04:40:18.718Z,8.80
2017-08-03T04:42:47.054Z,8.93
2017-08-03T04:45:14.609Z,8.77
2017-08-03T04:47:42.137Z,8.40
2017-08-03T04:50:09.666Z,8.17
2017-08-03T04:52:37.237Z,9.50
2017-08-03T04:55:04.770Z,8.40
2017-08-03T04:57:32.326Z,9.43
2017-08-03T04:59:59.890Z,9.40
2017-08-03T05:02:27.447Z,7.97
2017-08-03T05:04:54.982Z,9.27
2017-08-03T05:07:22.542Z,8.20
2017-08-03T05:09:50.847Z,8.30
2017-08-03T05:12:18.403Z,8.47
2017-08-03T05:14:46.949Z,8.03
2017-08-03T05:17:14.470Z,8.53
2017-08-03T05:19:42.006Z,8.50
2017-08-03T05:22:10.339Z,7.90
2017-08-03T05:24:37.870Z,8.53
2017-08-03T05:27:05.423Z,8.60
2017-08-03T05:29:32.982Z,9.33
2017-08-03T05:32:01.419Z,7.40
2017-08-03T05:34:29.900Z,9.37
2017-08-03T05:36:57.478Z,8.73
2017-08-03T05:39:25.019Z,8.30
2017-08-03T05:41:52.556Z,8.90
2017-08-03T05:44:20.108Z,8.77
2017-08-03T05:46:48.407Z,9.07
2017-08-03T05:49:16.025Z,8.40
2017-08-03T05:51:44.957Z,8.73
2017-08-03T05:54:12.499Z,8.70
2017-08-03T05:56:40.795Z,9.00
2017-08-03T05:59:09.108Z,8.90
2017-08-03T06:01:36.648Z,8.57
2017-08-03T06:04:04.953Z,8.80
2017-08-03T06:06:32.497Z,8.07
2017-08-03T06:09:00.043Z,7.93
2017-08-03T06:11:27.590Z,7.87
2017-08-03T06:13:55.145Z,7.53
2017-08-03T06:16:22.717Z,10.03
2017-08-03T06:18:50.255Z,8.00
2017-08-03T06:21:17.819Z,9.47
2017-08-03T06:23:45.344Z,8.80
2017-08-03T06:26:12.883Z,8.10
2017-08-03T06:28:41.227Z,7.83
2017-08-03T06:31:08.749Z,8.27
2017-08-03T06:33:36.278Z,8.87
2017-08-03T06:36:03.837Z,8.43
2017-08-03T06:38:31.364Z,7.70
2017-08-03T06:40:58.888Z,8.30
2017-08-03T06:43:27.220Z,8.20
2017-08-03T06:45:54.740Z,8.53
2017-08-03T06:48:22.267Z,9.00
2017-08-03T06:50:49.806Z,8.97
2017-08-03T06:53:17.338Z,8.00
2017-08-03T06:55:44.874Z,8.57
2017-08-03T06:58:12.425Z,7.93
2017-08-03T07:00:39.969Z,8.23
2017-08-03T07:03:07.504Z,8.10
2017-08-03T07:05:35.038Z,9.27
2017-08-03T07:08:02.583Z,8.27
2017-08-03T07:10:30.124Z,7.70
2017-08-03T07:12:57.696Z,7.53
2017-08-03T07:15:25.213Z,8.33
2017-08-03T07:17:53.506Z,8.33
2017-08-03T07:20:21.058Z,8.23
2017-08-03T07:22:49.341Z,7.70
2017-08-03T07:25:16.860Z,7.53
2017-08-03T07:27:45.428Z,7.73
2017-08-03T07:30:12.992Z,7.40
2017-08-03T07:32:40.528Z,8.30
2017-08-03T07:35:08.097Z,7.53
2017-08-03T07:37:35.636Z,7.60
2017-08-03T07:40:03.970Z,7.83
2017-08-03T07:42:31.536Z,7.40
2017-08-03T07:45:02.318Z,7.10
2017-08-03T07:47:30.621Z,7.67
2017-08-03T07:49:58.164Z,7.53
2017-08-03T07:52:25.699Z,6.63
2017-08-03T07:54:53.245Z,8.40
2017-08-03T07:57:20.812Z,6.97
2017-08-03T07:59:48.337Z,7.57
2017-08-03T08:02:15.895Z,8.00
2017-08-03T08:04:44.226Z,7.10
2017-08-03T08:07:12.211Z,6.83
2017-08-03T08:09:39.752Z,7.30
2017-08-03T08:12:07.301Z,7.87
2017-08-03T08:14:34.902Z,7.17
2017-08-03T08:17:02.410Z,7.80
2017-08-03T08:19:29.928Z,7.40
2017-08-03T08:21:57.478Z,7.23
2017-08-03T08:24:25.015Z,7.20
2017-08-03T08:26:52.555Z,6.97
2017-08-03T08:29:20.887Z,7.40
2017-08-03T08:31:48.425Z,8.53
2017-08-03T08:34:15.963Z,7.10
2017-08-03T08:36:44.726Z,7.50
2017-08-03T08:39:12.274Z,7.67
2017-08-03T08:41:39.802Z,6.40
2017-08-03T08:44:09.132Z,7.00
2017-08-03T08:46:36.682Z,6.50
2017-08-03T08:49:04.242Z,8.47
2017-08-03T08:51:32.785Z,7.10
2017-08-03T08:54:00.340Z,7.73
2017-08-03T08:56:27.881Z,7.93
2017-08-03T08:58:55.445Z,8.30
2017-08-03T09:01:22.971Z,8.13
2017-08-03T09:03:50.505Z,8.27
2017-08-03T09:06:18.062Z,7.70
2017-08-03T09:08:45.602Z,8.70
2017-08-03T09:11:13.139Z,7.70
2017-08-03T09:13:40.739Z,9.00
2017-08-03T09:16:08.286Z,7.90
2017-08-03T09:18:35.825Z,7.67
2017-08-03T09:21:04.169Z,9.93
2017-08-03T09:23:31.700Z,7.67
2017-08-03T09:25:59.239Z,8.33
2017-08-03T09:28:27.567Z,7.80
2017-08-03T09:30:55.091Z,8.87
2017-08-03T09:33:22.635Z,8.40
2017-08-03T09:35:50.967Z,7.90
2017-08-03T09:38:18.501Z,8.50
2017-08-03T09:40:46.021Z,8.10
2017-08-03T09:43:13.582Z,9.30
2017-08-03T09:45:41.137Z,7.33
2017-08-03T09:48:08.673Z,8.93
2017-08-03T09:50:36.237Z,7.73
2017-08-03T09:53:03.785Z,6.83
2017-08-03T09:55:31.339Z,8.53
2017-08-03T09:57:59.680Z,8.70
2017-08-03T10:00:27.218Z,7.57
2017-08-03T10:02:54.750Z,7.30
2017-08-03T10:05:23.079Z,7.80
2017-08-03T10:07:50.625Z,7.50
2017-08-03T10:10:18.181Z,7.77
2017-08-03T10:12:46.754Z,9.10
2017-08-03T10:15:14.322Z,7.70
2017-08-03T10:17:41.877Z,7.70
2017-08-03T10:20:10.193Z,8.87
2017-08-03T10:22:37.765Z,7.30
2017-08-03T10:25:08.098Z,8.30
2017-08-03T10:27:35.675Z,8.30
2017-08-03T10:30:03.249Z,7.37
2017-08-03T10:32:30.813Z,8.20
2017-08-03T10:34:58.399Z,7.07
2017-08-03T10:37:26.710Z,8.27
2017-08-03T10:39:54.260Z,7.00
2017-08-03T10:42:22.579Z,7.60
2017-08-03T10:44:50.160Z,7.47
2017-08-03T10:47:17.698Z,6.30
2017-08-03T10:49:45.300Z,7.03
2017-08-03T10:52:12.846Z,7.07
2017-08-03T10:54:40.381Z,6.57
2017-08-03T10:57:07.945Z,7.20
2017-08-03T10:59:35.494Z,6.47
2017-08-03T11:02:03.002Z,8.90
2017-08-03T11:04:30.581Z,8.10
2017-08-03T11:06:58.201Z,6.60
2017-08-03T11:09:25.752Z,6.43
2017-08-03T11:11:54.059Z,6.60
2017-08-03T11:14:21.608Z,7.80
2017-08-03T11:16:49.144Z,8.33
2017-08-03T11:19:16.716Z,6.70
2017-08-03T11:21:45.023Z,6.97
2017-08-03T11:24:12.566Z,7.80
2017-08-03T11:26:40.896Z,7.03
2017-08-03T11:29:08.448Z,6.80
2017-08-03T11:31:36.003Z,6.90
2017-08-03T11:34:03.557Z,6.80
2017-08-03T11:36:31.099Z,7.17
2017-08-03T11:38:59.407Z,6.30
2017-08-03T11:41:26.979Z,6.73
2017-08-03T11:43:54.531Z,6.73
2017-08-03T11:46:22.073Z,6.03
2017-08-03T11:48:50.402Z,6.67
2017-08-03T11:51:17.931Z,5.53
2017-08-03T11:53:45.475Z,7.00
2017-08-03T11:56:13.065Z,5.97
2017-08-03T11:58:40.606Z,6.73
2017-08-03T12:01:08.148Z,6.10
2017-08-03T12:03:35.735Z,6.77
2017-08-03T12:06:04.052Z,6.40
2017-08-03T12:08:31.604Z,7.40
2017-08-03T12:10:59.178Z,5.93
2017-08-03T12:13:26.728Z,7.93
2017-08-03T12:15:55.055Z,5.90
2017-08-03T12:18:22.624Z,8.87
2017-08-03T12:20:50.189Z,7.23
2017-08-03T12:23:17.741Z,5.83
2017-08-03T12:25:45.383Z,7.07
2017-08-03T12:28:12.987Z,7.17
2017-08-03T12:30:40.547Z,7.00
2017-08-03T12:33:08.142Z,7.30
2017-08-03T12:35:35.892Z,7.03
2017-08-03T12:38:03.433Z,6.80
2017-08-03T12:40:31.000Z,6.23
2017-08-03T12:42:58.588Z,6.83
2017-08-03T12:45:26.152Z,7.33
2017-08-03T12:47:53.841Z,7.37
2017-08-03T12:50:21.517Z,7.03
2017-08-03T12:52:49.124Z,6.63
2017-08-03T12:55:16.731Z,6.90
2017-08-03T12:57:44.288Z,7.83
2017-08-03T13:00:12.091Z,6.87
2017-08-03T13:02:39.690Z,6.20
2017-08-03T13:05:07.233Z,6.67
2017-08-03T13:07:34.797Z,6.57
2017-08-03T13:10:03.383Z,7.53
2017-08-03T13:12:39.056Z,7.87
2017-08-03T13:15:08.378Z,7.67
2017-08-03T13:17:36.002Z,6.50
2017-08-03T13:20:03.576Z,7.20
2017-08-03T13:22:31.381Z,7.23
2017-08-03T13:24:58.929Z,6.50
2017-08-03T13:27:26.467Z,6.63
2017-08-03T13:29:54.788Z,7.00
2017-08-03T13:32:22.325Z,8.40
2017-08-03T13:34:49.875Z,7.80
2017-08-03T13:37:17.427Z,7.40
2017-08-03T13:39:45.731Z,7.27
2017-08-03T13:42:13.261Z,6.83
2017-08-03T13:44:40.840Z,8.63
2017-08-03T13:47:09.139Z,6.60
2017-08-03T13:49:36.697Z,6.57
2017-08-03T13:52:04.272Z,7.20
2017-08-03T13:54:31.813Z,7.20
2017-08-03T13:56:59.344Z,7.60
2017-08-03T13:59:26.877Z,6.73
2017-08-03T14:01:54.414Z,7.33
2017-08-03T14:04:21.949Z,7.03
2017-08-03T14:06:49.512Z,6.57
2017-08-03T14:09:17.045Z,6.73
2017-08-03T14:11:44.592Z,7.73
2017-08-03T14:14:12.172Z,6.40
2017-08-03T14:16:39.714Z,6.33
2017-08-03T14:19:07.255Z,7.33
2017-08-03T14:21:36.548Z,8.87
2017-08-03T14:24:04.840Z,7.97
2017-08-03T14:26:33.155Z,6.87
2017-08-03T14:29:00.702Z,7.07
2017-08-03T14:31:28.233Z,7.37
2017-08-03T14:33:55.749Z,7.07
2017-08-03T14:36:23.309Z,7.17
2017-08-03T14:38:50.844Z,6.53
2017-08-03T14:41:19.151Z,7.70
2017-08-03T14:43:46.717Z,7.27
2017-08-03T14:46:14.258Z,7.33
2017-08-03T14:48:41.794Z,7.43
2017-08-03T14:51:09.355Z,7.40
2017-08-03T14:53:36.923Z,7.10
2017-08-03T14:56:04.451Z,7.30
2017-08-03T14:58:32.024Z,7.50
2017-08-03T15:00:59.573Z,7.37
2017-08-03T15:03:27.159Z,7.00
2017-08-03T15:05:54.720Z,8.20
2017-08-03T15:08:22.255Z,8.63
2017-08-03T15:10:49.789Z,7.63
2017-08-03T15:13:18.546Z,7.50
2017-08-03T15:15:46.102Z,8.70
2017-08-03T15:18:13.654Z,8.20
2017-08-03T15:20:41.216Z,8.00
2017-08-03T15:23:08.743Z,7.30
2017-08-03T15:25:36.347Z,8.13
2017-08-03T15:28:03.890Z,7.67
2017-08-03T15:30:31.429Z,8.17
2017-08-03T15:32:59.724Z,7.97
2017-08-03T15:35:28.038Z,8.00
2017-08-03T15:37:55.608Z,8.37
2017-08-03T15:40:23.155Z,6.70
2017-08-03T15:42:50.716Z,7.97
2017-08-03T15:45:18.241Z,9.50
2017-08-03T15:47:45.782Z,8.23
2017-08-03T15:50:13.357Z,8.60
2017-08-03T15:52:40.923Z,7.63
2017-08-03T15:55:08.471Z,8.20
2017-08-03T15:57:36.068Z,8.20
2017-08-03T16:00:03.585Z,8.90
2017-08-03T16:02:31.136Z,8.27
2017-08-03T16:04:58.703Z,7.73
2017-08-03T16:07:26.243Z,7.70
2017-08-03T16:09:53.790Z,8.70
2017-08-03T16:12:22.125Z,9.30
2017-08-03T16:14:49.670Z,10.70
2017-08-03T16:17:17.197Z,8.83
2017-08-03T16:19:44.757Z,7.57
2017-08-03T16:22:12.281Z,9.00
2017-08-03T16:24:39.801Z,8.30
2017-08-03T16:27:08.113Z,8.57
2017-08-03T16:29:35.664Z,8.07
2017-08-03T16:32:03.189Z,8.80
2017-08-03T16:34:30.733Z,8.20
2017-08-03T16:36:58.285Z,8.03
2017-08-03T16:39:25.816Z,7.67
2017-08-03T16:41:53.381Z,8.30
2017-08-03T16:44:20.899Z,8.43
2017-08-03T16:46:48.438Z,8.00
2017-08-03T16:49:16.012Z,8.23
2017-08-03T16:51:44.605Z,8.00
2017-08-03T16:54:12.121Z,8.13
2017-08-03T16:56:40.448Z,9.57
2017-08-03T16:59:07.989Z,7.17
2017-08-03T17:01:35.524Z,8.33
2017-08-03T17:04:03.112Z,7.00
2017-08-03T17:06:30.713Z,7.20
2017-08-03T17:08:58.253Z,8.03
2017-08-03T17:11:30.013Z,7.83
2017-08-03T17:13:57.545Z,7.73
2017-08-03T17:16:25.097Z,7.97
2017-08-03T17:18:53.443Z,7.80
2017-08-03T17:21:20.978Z,9.20
2017-08-03T17:23:48.521Z,8.00
2017-08-03T17:26:16.834Z,7.67
2017-08-03T17:28:44.382Z,7.30
2017-08-03T17:31:11.912Z,7.50
2017-08-03T17:33:40.231Z,7.10
2017-08-03T17:36:07.775Z,8.53
2017-08-03T17:38:36.071Z,7.53
2017-08-03T17:41:03.768Z,7.70
2017-08-03T17:43:31.448Z,7.67
2017-08-03T17:45:59.159Z,7.30
2017-08-03T17:48:26.834Z,7.83
2017-08-03T17:50:54.387Z,8.10
2017-08-03T17:53:22.919Z,7.83
2017-08-03T17:55:50.556Z,7.37
2017-08-03T17:58:18.119Z,8.23
2017-08-03T18:00:45.864Z,8.10
2017-08-03T18:03:14.269Z,8.07
2017-08-03T18:05:41.833Z,7.80
2017-08-03T18:08:09.372Z,7.90
2017-08-03T18:10:36.930Z,7.83
2017-08-03T18:13:04.762Z,8.80
2017-08-03T18:15:32.400Z,8.10
2017-08-03T18:17:59.995Z,8.00
2017-08-03T18:20:27.625Z,8.57
2017-08-03T18:22:55.264Z,7.70
2017-08-03T18:25:22.869Z,8.27
2017-08-03T18:27:50.417Z,7.60
2017-08-03T18:30:18.938Z,8.70
2017-08-03T18:32:46.738Z,7.10
2017-08-03T18:35:14.365Z,9.60
2017-08-03T18:37:41.899Z,7.37
2017-08-03T18:40:09.536Z,7.93
2017-08-03T18:42:37.063Z,8.00
2017-08-03T18:45:04.691Z,7.30
2017-08-03T18:47:32.260Z,8.70
2017-08-03T18:50:00.685Z,8.17
2017-08-03T18:52:28.235Z,8.80
2017-08-03T18:54:56.118Z,7.90
2017-08-03T18:57:23.925Z,7.80
2017-08-03T18:59:51.911Z,6.80
2017-08-03T19:02:19.494Z,7.90
2017-08-03T19:04:47.501Z,7.23
2017-08-03T19:07:15.323Z,6.63
2017-08-03T19:09:49.484Z,8.37
2017-08-03T19:12:17.438Z,7.50
2017-08-03T19:14:45.256Z,7.30
2017-08-03T19:17:12.873Z,10.07
2017-08-03T19:19:40.788Z,8.60
2017-08-03T19:22:08.314Z,8.10
2017-08-03T19:24:36.176Z,7.07
2017-08-03T19:27:05.621Z,9.10
2017-08-03T19:29:33.370Z,7.10
2017-08-03T19:32:00.974Z,7.33
2017-08-03T19:34:28.587Z,8.17
2017-08-03T19:36:56.337Z,6.83
2017-08-03T19:39:25.427Z,8.20
2017-08-03T19:41:53.322Z,7.40
2017-08-03T19:44:20.983Z,6.87
2017-08-03T19:46:49.571Z,8.00
2017-08-03T19:49:17.919Z,7.70
2017-08-03T19:51:45.821Z,7.20
2017-08-03T19:54:15.345Z,7.30
2017-08-03T19:56:43.699Z,8.07
2017-08-03T19:59:11.735Z,8.37
2017-08-03T20:01:41.068Z,7.40
2017-08-03T20:04:09.240Z,7.43
2017-08-03T20:06:46.971Z,7.70
2017-08-03T20:09:24.230Z,7.37
2017-08-03T20:11:52.719Z,8.33
2017-08-03T20:14:20.596Z,8.30
2017-08-03T20:16:48.546Z,7.20
2017-08-03T20:19:16.256Z,7.87
2017-08-03T20:21:44.019Z,7.53
2017-08-03T20:24:12.496Z,7.50
2017-08-03T20:26:40.334Z,8.10
2017-08-03T20:29:07.977Z,8.10
2017-08-03T20:31:35.684Z,7.00
2017-08-03T20:34:03.478Z,7.37
2017-08-03T20:36:31.153Z,8.20
2017-08-03T20:38:59.042Z,7.33
2017-08-03T20:41:27.396Z,7.53
2017-08-03T20:43:55.367Z,7.43
2017-08-03T20:46:23.911Z,7.40
2017-08-03T20:48:52.420Z,7.77
2017-08-03T20:51:20.100Z,7.80
2017-08-03T20:53:48.425Z,8.17
2017-08-03T20:56:15.999Z,7.87
2017-08-03T20:58:43.532Z,6.87
2017-08-03T21:01:12.009Z,8.67
2017-08-03T21:03:40.521Z,7.43
2017-08-03T21:06:08.248Z,7.73
2017-08-03T21:08:36.643Z,8.90
2017-08-03T21:11:04.547Z,8.50
2017-08-03T21:13:32.373Z,7.67
2017-08-03T21:16:01.175Z,9.33
2017-08-03T21:18:30.129Z,7.90
2017-08-03T21:20:58.108Z,8.10
2017-08-03T21:23:26.038Z,7.73
2017-08-03T21:25:54.438Z,8.03
2017-08-03T21:28:22.179Z,8.10
2017-08-03T21:30:51.515Z,7.87
2017-08-03T21:33:19.085Z,9.80
2017-08-03T21:35:46.627Z,8.40
2017-08-03T21:38:14.942Z,8.27
2017-08-03T21:40:42.499Z,8.47
2017-08-03T21:43:10.040Z,7.90
2017-08-03T21:45:38.321Z,8.90
2017-08-03T21:48:06.646Z,9.33
2017-08-03T21:50:34.182Z,9.33
2017-08-03T21:53:01.707Z,8.27
2017-08-03T21:55:29.285Z,9.10
2017-08-03T21:57:57.632Z,8.90
2017-08-03T22:00:37.043Z,9.03
2017-08-03T22:03:04.669Z,9.40
2017-08-03T22:05:33.038Z,9.73
2017-08-03T22:08:00.660Z,7.87
2017-08-03T22:10:28.241Z,8.30
2017-08-03T22:12:55.756Z,9.33
2017-08-03T22:15:25.061Z,8.87
2017-08-03T22:17:52.607Z,8.83
2017-08-03T22:20:20.909Z,8.80
2017-08-03T22:22:48.466Z,8.40
2017-08-03T22:25:16.787Z,8.87
2017-08-03T22:27:44.318Z,9.33
2017-08-03T22:30:11.972Z,9.20
2017-08-03T22:32:39.509Z,9.57
2017-08-03T22:35:07.822Z,8.70
2017-08-03T22:37:35.370Z,8.77
2017-08-03T22:40:02.940Z,8.83
2017-08-03T22:42:31.268Z,8.60
2017-08-03T22:44:58.824Z,8.13
2017-08-03T22:47:26.364Z,7.97
2017-08-03T22:49:54.659Z,9.00
2017-08-03T22:52:22.266Z,7.50
2017-08-03T22:54:49.812Z,8.87
2017-08-03T22:57:17.347Z,9.13
2017-08-03T22:59:44.940Z,8.70
2017-08-03T23:02:12.477Z,9.20
2017-08-03T23:04:40.014Z,10.07
2017-08-03T23:07:07.580Z,9.43
2017-08-03T23:09:35.911Z,10.20
2017-08-03T23:12:03.746Z,10.33
2017-08-03T23:14:32.082Z,9.40
2017-08-03T23:16:59.638Z,11.00
2017-08-03T23:19:27.180Z,10.70
2017-08-03T23:21:54.823Z,11.13
2017-08-03T23:24:22.430Z,10.90
2017-08-03T23:26:49.997Z,10.63
2017-08-03T23:29:17.575Z,11.90
2017-08-03T23:31:45.140Z,11.37
2017-08-03T23:34:12.680Z,9.87
2017-08-03T23:36:41.253Z,11.30
2017-08-03T23:39:08.808Z,11.67
2017-08-03T23:41:36.337Z,10.20
2017-08-03T23:44:03.921Z,10.37
2017-08-03T23:46:31.467Z,11.27
2017-08-03T23:48:59.017Z,10.43
2017-08-03T23:51:26.583Z,10.37
2017-08-03T23:53:54.125Z,10.30
2017-08-03T23:56:21.685Z,9.70
2017-08-03T23:58:49.248Z,10.10
